createdAt,value
2019-04-30T00:00:00.915Z,21.40
2019-04-30T00:02:38.401Z,22.63
2019-04-30T00:05:05.328Z,21.33
2019-04-30T00:07:35.709Z,24.53
2019-04-30T00:10:09.399Z,22.15
2019-04-30T00:12:39.682Z,16.50
2019-04-30T00:15:11.115Z,25.13
2019-04-30T00:17:41.107Z,23.63
2019-04-30T00:20:11.205Z,26.97
2019-04-30T00:22:47.208Z,25.03
2019-04-30T00:25:12.249Z,25.90
2019-04-30T00:27:41.618Z,25.50
2019-04-30T00:30:12.569Z,29.57
2019-04-30T00:32:43.766Z,19.50
2019-04-30T00:35:18.120Z,19.40
2019-04-30T00:37:44.947Z,26.10
2019-04-30T00:40:15.840Z,28.10
2019-04-30T00:42:47.949Z,27.60
2019-04-30T00:45:17.459Z,30.83
2019-04-30T00:47:47.967Z,28.17
2019-04-30T00:50:17.546Z,31.70
2019-04-30T00:52:47.466Z,31.53
2019-04-30T00:55:17.592Z,31.20
2019-04-30T00:57:47.517Z,36.00
2019-04-30T01:00:25.086Z,33.97
2019-04-30T01:02:51.908Z,31.53
2019-04-30T01:05:22.186Z,33.73
2019-04-30T01:07:51.920Z,32.50
2019-04-30T01:10:26.780Z,26.37
2019-04-30T01:12:53.125Z,26.97
2019-04-30T01:15:22.467Z,35.10
2019-04-30T01:17:53.691Z,30.13
2019-04-30T01:20:29.091Z,31.37
2019-04-30T01:22:58.687Z,27.43
2019-04-30T01:25:28.863Z,30.50
2019-04-30T01:27:58.623Z,33.93
2019-04-30T01:30:28.571Z,30.10
2019-04-30T01:33:00.645Z,25.37
2019-04-30T01:35:32.763Z,28.03
2019-04-30T01:38:04.177Z,31.40
2019-04-30T01:40:31.443Z,33.90
2019-04-30T01:43:00.885Z,35.23
2019-04-30T01:45:31.781Z,32.17
2019-04-30T01:48:08.603Z,26.67
2019-04-30T01:50:33.799Z,32.43
2019-04-30T01:53:04.755Z,28.50
2019-04-30T02:14:51.821Z,32.10
2019-04-30T02:17:20.849Z,33.57
2019-04-30T02:19:56.574Z,30.30
2019-04-30T02:22:21.334Z,44.83
2019-04-30T02:24:51.014Z,33.63
2019-04-30T02:27:21.614Z,34.57
2019-04-30T02:29:51.575Z,31.93
2019-04-30T02:32:21.012Z,35.13
2019-04-30T02:34:59.845Z,34.60
2019-04-30T02:37:33.162Z,37.07
2019-04-30T02:40:02.530Z,32.40
2019-04-30T02:42:32.826Z,34.07
2019-04-30T02:45:03.842Z,36.33
2019-04-30T02:47:35.844Z,36.40
2019-04-30T02:50:15.611Z,29.80
2019-04-30T02:52:41.253Z,31.03
2019-04-30T02:55:15.273Z,32.93
2019-04-30T02:57:44.656Z,29.73
2019-04-30T03:00:20.351Z,36.23
2019-04-30T03:02:50.910Z,32.77
2019-04-30T03:05:21.543Z,36.50
2019-04-30T03:07:53.522Z,38.27
2019-04-30T03:10:22.418Z,30.50
2019-04-30T03:12:52.364Z,33.37
2019-04-30T03:15:22.809Z,34.37
2019-04-30T03:17:54.156Z,35.77
2019-04-30T03:20:36.417Z,28.20
2019-04-30T03:23:05.893Z,28.03
2019-04-30T03:25:36.674Z,27.97
2019-04-30T03:28:09.596Z,31.03
2019-04-30T03:30:42.088Z,32.90
2019-04-30T03:33:12.725Z,31.70
2019-04-30T03:35:46.596Z,30.70
2019-04-30T03:38:12.368Z,31.90
2019-04-30T03:40:41.740Z,30.73
2019-04-30T03:43:11.095Z,26.93
2019-04-30T03:45:41.066Z,33.60
2019-04-30T03:48:13.374Z,26.27
2019-04-30T03:50:53.462Z,37.30
2019-04-30T03:53:14.542Z,34.93
2019-04-30T03:55:43.921Z,26.33
2019-04-30T03:58:14.944Z,37.13
2019-04-30T04:00:50.240Z,35.90
2019-04-30T04:03:20.182Z,31.27
2019-04-30T04:05:51.235Z,27.45
2019-04-30T04:08:22.835Z,34.10
2019-04-30T04:11:00.506Z,25.70
2019-04-30T04:13:33.011Z,31.57
2019-04-30T04:16:01.197Z,31.47
2019-04-30T04:18:30.551Z,32.57
2019-04-30T04:21:11.768Z,35.33
2019-04-30T04:23:32.859Z,30.60
2019-04-30T04:26:02.421Z,26.37
2019-04-30T04:28:32.524Z,27.00
2019-04-30T04:31:01.894Z,32.95
2019-04-30T04:33:31.835Z,29.43
2019-04-30T04:36:01.923Z,29.17
2019-04-30T04:38:31.294Z,34.23
2019-04-30T04:41:03.044Z,29.60
2019-04-30T04:43:31.797Z,29.13
2019-04-30T04:46:01.160Z,30.30
2019-04-30T04:48:31.201Z,48.23
2019-04-30T04:51:00.618Z,45.77
2019-04-30T04:53:30.586Z,32.20
2019-04-30T04:56:00.796Z,28.73
2019-04-30T04:58:30.495Z,24.40
2019-04-30T05:01:00.329Z,30.13
2019-04-30T05:03:34.172Z,32.73
2019-04-30T05:06:04.852Z,32.90
2019-04-30T05:08:34.248Z,41.70
2019-04-30T05:11:03.630Z,34.50
2019-04-30T05:13:34.761Z,33.83
2019-04-30T05:16:05.710Z,34.83
2019-04-30T05:18:35.066Z,37.03
2019-04-30T05:21:04.452Z,32.83
2019-04-30T05:23:34.388Z,35.57
2019-04-30T05:26:03.855Z,37.03
2019-04-30T05:28:33.266Z,32.63
2019-04-30T05:31:02.904Z,37.43
2019-04-30T05:33:32.262Z,28.57
2019-04-30T05:36:02.844Z,37.27
2019-04-30T05:38:33.254Z,34.77
2019-04-30T05:41:03.177Z,32.23
2019-04-30T05:43:32.570Z,40.53
2019-04-30T05:46:01.958Z,31.73
2019-04-30T05:48:31.388Z,34.97
2019-04-30T05:51:00.778Z,31.23
2019-04-30T05:53:30.153Z,33.40
2019-04-30T05:55:59.529Z,36.83
2019-04-30T05:58:30.114Z,40.07
2019-04-30T06:01:00.916Z,34.67
2019-04-30T06:03:33.249Z,38.40
2019-04-30T06:06:01.435Z,31.10
2019-04-30T06:08:32.526Z,27.70
2019-04-30T06:11:03.555Z,31.53
2019-04-30T06:13:34.935Z,30.90
2019-04-30T06:16:06.163Z,32.37
2019-04-30T06:18:35.693Z,33.00
2019-04-30T06:21:05.164Z,30.00
2019-04-30T06:23:34.530Z,31.00
2019-04-30T06:26:09.750Z,27.20
2019-04-30T06:28:39.054Z,32.43
2019-04-30T06:31:09.809Z,35.92
2019-04-30T06:33:39.897Z,29.47
2019-04-30T06:36:11.125Z,30.03
2019-04-30T06:38:40.619Z,32.43
2019-04-30T06:41:09.987Z,30.40
2019-04-30T06:43:59.696Z,30.30
2019-04-30T06:46:29.276Z,34.63
2019-04-30T06:48:59.982Z,33.23
2019-04-30T06:51:30.786Z,28.57
2019-04-30T06:54:00.311Z,33.17
2019-04-30T06:56:29.689Z,29.37
2019-04-30T06:58:59.141Z,30.03
2019-04-30T07:01:29.146Z,31.23
2019-04-30T07:04:00.736Z,28.00
2019-04-30T07:06:32.747Z,33.17
2019-04-30T07:09:19.684Z,31.37
2019-04-30T07:11:53.653Z,28.10
2019-04-30T07:14:23.118Z,29.70
2019-04-30T07:16:52.495Z,25.70
2019-04-30T07:19:31.943Z,27.33
2019-04-30T07:21:53.059Z,26.40
2019-04-30T07:24:22.516Z,28.37
2019-04-30T07:26:54.620Z,25.60
2019-04-30T07:29:23.353Z,32.27
2019-04-30T07:31:52.751Z,31.67
2019-04-30T07:34:22.160Z,26.77
2019-04-30T07:37:10.907Z,32.10
2019-04-30T07:39:23.473Z,28.27
2019-04-30T07:41:54.225Z,24.23
2019-04-30T07:44:34.132Z,25.50
2019-04-30T07:46:54.709Z,24.77
2019-04-30T07:49:45.941Z,29.23
2019-04-30T07:52:00.730Z,26.57
2019-04-30T07:54:30.095Z,24.80
2019-04-30T07:57:00.549Z,25.63
2019-04-30T07:59:30.252Z,26.27
2019-04-30T08:02:07.465Z,23.93
2019-04-30T08:04:35.364Z,22.43
2019-04-30T08:07:05.672Z,23.63
2019-04-30T08:09:39.726Z,23.03
2019-04-30T08:12:07.128Z,23.37
2019-04-30T08:14:39.085Z,25.03
2019-04-30T08:17:08.890Z,24.87
2019-04-30T08:19:41.005Z,21.70
2019-04-30T08:22:09.619Z,24.50
2019-04-30T08:24:39.166Z,25.07
2019-04-30T08:27:09.773Z,22.93
2019-04-30T08:29:39.538Z,23.20
2019-04-30T08:32:09.110Z,22.27
2019-04-30T08:34:39.376Z,22.30
2019-04-30T08:37:17.273Z,22.10
2019-04-30T08:39:40.471Z,21.43
2019-04-30T08:42:09.906Z,20.88
2019-04-30T08:44:39.670Z,26.60
2019-04-30T08:47:09.145Z,21.47
2019-04-30T08:49:40.362Z,22.30
2019-04-30T08:52:10.591Z,23.27
2019-04-30T08:54:40.354Z,19.00
2019-04-30T08:57:09.740Z,19.33
2019-04-30T08:59:39.532Z,15.63
2019-04-30T09:02:16.119Z,17.57
2019-04-30T09:04:40.503Z,16.70
2019-04-30T09:07:10.279Z,20.88
2019-04-30T09:09:40.163Z,20.37
2019-04-30T09:12:09.990Z,20.57
2019-04-30T09:14:40.626Z,16.73
2019-04-30T09:17:10.049Z,18.07
2019-04-30T09:19:39.462Z,24.00
2019-04-30T09:22:14.922Z,18.90
2019-04-30T09:24:39.991Z,20.70
2019-04-30T09:27:10.797Z,17.53
2019-04-30T09:29:40.946Z,18.03
2019-04-30T09:32:10.976Z,16.60
2019-04-30T09:34:40.510Z,19.77
2019-04-30T09:37:09.969Z,15.97
2019-04-30T09:39:39.413Z,16.73
2019-04-30T09:42:09.324Z,18.07
2019-04-30T09:44:39.111Z,18.57
2019-04-30T09:47:08.961Z,19.17
2019-04-30T09:49:39.142Z,17.07
2019-04-30T09:52:10.120Z,17.57
2019-04-30T09:54:40.205Z,21.27
2019-04-30T09:57:11.431Z,19.53
2019-04-30T09:59:40.931Z,23.57
2019-04-30T10:02:11.115Z,15.57
2019-04-30T10:04:41.051Z,16.00
2019-04-30T10:07:10.848Z,23.73
2019-04-30T10:09:40.299Z,18.00
2019-04-30T10:12:19.402Z,17.63
2019-04-30T10:14:49.497Z,17.87
2019-04-30T10:17:32.769Z,14.27
2019-04-30T10:20:02.124Z,19.03
2019-04-30T10:22:31.502Z,15.00
2019-04-30T10:25:01.449Z,14.70
2019-04-30T10:27:30.868Z,15.40
2019-04-30T10:30:01.117Z,15.03
2019-04-30T10:32:30.500Z,22.57
2019-04-30T10:34:59.873Z,17.40
2019-04-30T10:37:29.395Z,18.57
2019-04-30T10:39:59.769Z,18.73
2019-04-30T10:42:29.150Z,22.03
2019-04-30T10:45:00.249Z,18.97
2019-04-30T10:47:32.724Z,14.63
2019-04-30T10:50:02.235Z,12.90
2019-04-30T10:52:31.605Z,14.37
2019-04-30T10:55:04.361Z,13.47
2019-04-30T10:57:32.527Z,15.33
2019-04-30T11:00:01.906Z,14.27
2019-04-30T11:02:31.375Z,12.70
2019-04-30T11:05:00.743Z,13.83
2019-04-30T11:07:30.112Z,15.40
2019-04-30T11:10:00.031Z,13.70
2019-04-30T11:12:29.509Z,14.80
2019-04-30T11:14:58.861Z,13.90
2019-04-30T11:17:30.062Z,15.07
2019-04-30T11:19:59.642Z,14.67
2019-04-30T11:22:29.348Z,14.27
2019-04-30T11:25:02.466Z,11.63
2019-04-30T11:27:31.113Z,13.20
2019-04-30T11:30:03.896Z,15.63
2019-04-30T11:32:32.655Z,14.60
2019-04-30T11:35:02.263Z,12.87
2019-04-30T11:37:31.767Z,17.73
2019-04-30T11:40:01.160Z,15.20
2019-04-30T11:42:32.392Z,14.63
2019-04-30T11:45:01.843Z,17.43
2019-04-30T11:47:33.361Z,13.30
2019-04-30T11:50:03.030Z,15.70
2019-04-30T11:52:32.548Z,12.20
2019-04-30T11:55:01.978Z,14.70
2019-04-30T11:57:31.322Z,14.57
2019-04-30T12:00:00.688Z,12.63
2019-04-30T12:02:34.999Z,12.37
2019-04-30T12:05:08.172Z,14.80
2019-04-30T12:07:45.139Z,11.00
2019-04-30T12:10:29.424Z,15.73
2019-04-30T12:12:58.836Z,12.87
2019-04-30T12:15:29.129Z,12.60
2019-04-30T12:17:58.616Z,12.67
2019-04-30T12:20:28.206Z,18.97
2019-04-30T12:22:59.181Z,10.67
2019-04-30T12:25:30.407Z,10.78
2019-04-30T12:27:59.904Z,13.43
2019-04-30T12:30:29.939Z,12.70
2019-04-30T12:32:59.310Z,12.47
2019-04-30T12:35:28.712Z,11.60
2019-04-30T12:37:58.859Z,13.97
2019-04-30T12:40:30.080Z,14.97
2019-04-30T12:43:00.111Z,16.30
2019-04-30T12:45:29.535Z,17.43
2019-04-30T12:48:00.494Z,9.33
2019-04-30T12:50:32.748Z,10.57
2019-04-30T12:53:03.762Z,14.10
2019-04-30T12:55:34.768Z,10.13
2019-04-30T12:58:05.000Z,12.60
2019-04-30T13:00:34.709Z,9.90
2019-04-30T13:03:04.144Z,11.53
2019-04-30T13:05:33.521Z,10.87
2019-04-30T13:08:03.739Z,12.30
2019-04-30T13:10:33.886Z,13.53
2019-04-30T13:13:04.141Z,11.10
2019-04-30T13:15:33.744Z,10.77
2019-04-30T13:18:04.760Z,10.37
2019-04-30T13:20:34.998Z,14.13
2019-04-30T13:23:05.612Z,12.87
2019-04-30T13:25:35.676Z,12.60
2019-04-30T13:28:10.635Z,10.63
2019-04-30T13:30:41.190Z,11.00
2019-04-30T13:33:28.893Z,11.80
2019-04-30T13:35:58.914Z,10.97
2019-04-30T13:38:29.987Z,14.47
2019-04-30T13:41:04.040Z,11.90
2019-04-30T13:43:51.154Z,11.67
2019-04-30T13:46:20.627Z,18.63
2019-04-30T13:48:50.058Z,14.40
2019-04-30T13:51:19.430Z,11.00
2019-04-30T13:53:49.920Z,11.27
2019-04-30T13:56:20.298Z,13.20
2019-04-30T13:58:50.605Z,18.77
2019-04-30T14:01:21.457Z,14.50
2019-04-30T14:03:52.757Z,15.67
2019-04-30T14:06:23.777Z,12.33
2019-04-30T14:08:54.812Z,14.33
2019-04-30T14:11:25.944Z,13.53
2019-04-30T14:13:55.380Z,14.93
2019-04-30T14:16:25.307Z,12.50
2019-04-30T14:18:55.293Z,13.60
2019-04-30T14:21:34.530Z,10.37
2019-04-30T14:23:55.834Z,11.20
2019-04-30T14:26:25.287Z,10.90
2019-04-30T14:28:54.664Z,10.77
2019-04-30T14:31:26.313Z,12.03
2019-04-30T14:33:55.219Z,11.67
2019-04-30T14:36:24.592Z,13.60
2019-04-30T14:38:54.034Z,14.27
2019-04-30T14:41:23.996Z,10.43
2019-04-30T14:43:55.507Z,12.77
2019-04-30T14:46:43.586Z,11.90
2019-04-30T14:49:24.757Z,16.43
2019-04-30T14:51:54.861Z,11.20
2019-04-30T14:54:32.252Z,14.57
2019-04-30T14:57:06.613Z,12.00
2019-04-30T14:59:53.530Z,15.10
2019-04-30T15:02:24.575Z,14.10
2019-04-30T15:04:54.035Z,11.43
2019-04-30T15:07:23.406Z,14.20
2019-04-30T15:09:53.630Z,13.27
2019-04-30T15:12:23.074Z,10.27
2019-04-30T15:14:52.435Z,12.63
2019-04-30T15:17:22.485Z,10.75
2019-04-30T15:19:54.526Z,15.50
2019-04-30T15:22:23.112Z,10.43
2019-04-30T15:24:52.516Z,13.30
2019-04-30T15:27:22.548Z,14.80
2019-04-30T15:29:57.264Z,12.40
2019-04-30T15:32:23.353Z,13.77
2019-04-30T15:34:52.787Z,15.83
2019-04-30T15:37:23.939Z,11.50
2019-04-30T15:39:53.274Z,16.60
2019-04-30T15:42:23.549Z,16.00
2019-04-30T15:44:52.959Z,13.13
2019-04-30T15:47:23.311Z,15.33
2019-04-30T15:49:52.694Z,17.00
2019-04-30T15:52:22.078Z,11.53
2019-04-30T15:54:51.858Z,14.97
2019-04-30T15:57:21.244Z,11.17
2019-04-30T15:59:51.001Z,14.63
2019-04-30T16:02:24.722Z,12.50
2019-04-30T16:05:11.367Z,12.27
2019-04-30T16:07:45.112Z,15.13
2019-04-30T16:10:25.633Z,14.27
2019-04-30T16:12:58.875Z,14.50
2019-04-30T16:15:29.758Z,12.87
2019-04-30T16:18:05.825Z,16.70
2019-04-30T16:20:35.218Z,16.07
2019-04-30T16:23:04.734Z,14.10
2019-04-30T16:25:34.236Z,21.87
2019-04-30T16:28:03.611Z,18.17
2019-04-30T16:30:33.047Z,15.43
2019-04-30T16:33:02.856Z,12.80
2019-04-30T16:35:32.259Z,15.83
2019-04-30T16:38:01.634Z,13.77
2019-04-30T16:40:31.024Z,13.43
2019-04-30T16:43:00.393Z,14.10
2019-04-30T16:45:29.858Z,13.27
2019-04-30T16:47:59.240Z,14.73
2019-04-30T16:50:29.930Z,14.93
2019-04-30T16:52:59.368Z,12.23
2019-04-30T16:55:29.254Z,11.60
2019-04-30T16:57:58.657Z,12.87
2019-04-30T17:00:29.076Z,13.10
2019-04-30T17:03:04.569Z,15.03
2019-04-30T17:05:39.588Z,16.33
2019-04-30T17:08:10.683Z,11.53
2019-04-30T17:10:41.835Z,10.97
2019-04-30T17:13:12.883Z,11.43
2019-04-30T17:15:44.269Z,15.47
2019-04-30T17:18:13.641Z,12.33
2019-04-30T17:20:43.032Z,14.07
2019-04-30T17:23:12.429Z,15.63
2019-04-30T17:25:41.808Z,14.80
2019-04-30T17:28:11.185Z,16.17
2019-04-30T17:30:40.643Z,14.83
2019-04-30T17:33:12.780Z,15.63
2019-04-30T17:35:42.176Z,26.43
2019-04-30T17:38:11.992Z,15.27
2019-04-30T17:40:41.360Z,15.57
2019-04-30T17:43:10.728Z,14.43
2019-04-30T17:45:40.228Z,13.70
2019-04-30T17:48:09.754Z,15.57
2019-04-30T17:50:39.650Z,14.27
2019-04-30T17:53:09.284Z,12.50
2019-04-30T17:55:39.211Z,13.43
2019-04-30T17:58:09.841Z,12.70
2019-04-30T18:00:41.121Z,14.07
2019-04-30T18:03:10.945Z,12.20
2019-04-30T18:05:41.216Z,16.53
2019-04-30T18:08:10.666Z,16.57
2019-04-30T18:10:40.757Z,18.73
2019-04-30T18:13:10.128Z,13.27
2019-04-30T18:15:39.553Z,16.97
2019-04-30T18:18:13.507Z,12.00
2019-04-30T18:20:51.402Z,10.03
2019-04-30T18:23:31.513Z,11.63
2019-04-30T18:26:14.323Z,13.33
2019-04-30T18:28:43.690Z,11.30
2019-04-30T18:31:13.057Z,12.50
2019-04-30T18:33:42.484Z,14.47
2019-04-30T18:36:11.918Z,11.43
2019-04-30T18:38:41.355Z,9.50
2019-04-30T18:41:11.388Z,8.87
2019-04-30T18:43:40.747Z,11.63
2019-04-30T18:46:10.870Z,14.13
2019-04-30T18:48:40.277Z,7.53
2019-04-30T18:51:29.849Z,8.33
2019-04-30T18:53:40.833Z,9.40
2019-04-30T18:56:14.440Z,8.20
2019-04-30T18:58:43.141Z,7.23
2019-04-30T19:01:12.569Z,7.40
2019-04-30T19:03:42.605Z,11.63
2019-04-30T19:06:23.014Z,8.40
2019-04-30T19:08:55.394Z,9.60
2019-04-30T19:11:36.149Z,12.63
2019-04-30T19:14:23.276Z,8.90
2019-04-30T19:17:09.588Z,11.73
2019-04-30T19:19:52.643Z,13.87
2019-04-30T19:22:22.071Z,10.30
2019-04-30T19:24:58.240Z,10.87
2019-04-30T19:27:22.644Z,9.27
2019-04-30T19:29:51.993Z,11.17
2019-04-30T19:32:21.498Z,11.60
2019-04-30T19:34:50.907Z,9.90
2019-04-30T19:37:20.307Z,7.47
2019-04-30T19:39:51.182Z,12.57
2019-04-30T19:42:21.363Z,11.10
2019-04-30T19:45:00.647Z,10.93
2019-04-30T19:47:21.807Z,10.27
2019-04-30T19:49:51.197Z,9.93
2019-04-30T19:52:20.616Z,12.93
2019-04-30T19:54:49.925Z,14.57
2019-04-30T19:57:19.340Z,12.50
2019-04-30T19:59:49.301Z,9.83
2019-04-30T20:02:19.120Z,11.83
2019-04-30T20:04:49.816Z,12.03
2019-04-30T20:07:19.582Z,13.77
2019-04-30T20:10:00.187Z,14.10
2019-04-30T20:12:20.623Z,14.60
2019-04-30T20:14:50.002Z,14.57
2019-04-30T20:17:19.549Z,13.73
2019-04-30T20:19:49.031Z,15.07
2019-04-30T20:22:19.606Z,15.83
2019-04-30T20:24:49.273Z,22.27
2019-04-30T20:27:19.060Z,14.73
2019-04-30T20:29:51.522Z,15.90
2019-04-30T20:32:32.940Z,15.98
2019-04-30T20:34:50.795Z,17.50
2019-04-30T20:37:20.166Z,12.43
2019-04-30T20:39:51.175Z,13.37
2019-04-30T20:42:20.979Z,13.37
2019-04-30T20:44:50.351Z,18.60
2019-04-30T20:47:21.146Z,13.20
2019-04-30T20:49:50.664Z,17.27
2019-04-30T20:52:20.743Z,14.47
2019-04-30T20:54:50.175Z,15.33
2019-04-30T20:57:20.003Z,17.43
2019-04-30T20:59:49.605Z,14.33
2019-04-30T21:02:20.473Z,17.67
2019-04-30T21:04:50.328Z,15.37
2019-04-30T21:07:19.727Z,14.83
2019-04-30T21:09:49.116Z,17.37
2019-04-30T21:12:18.857Z,19.97
2019-04-30T21:14:48.664Z,18.43
2019-04-30T21:17:18.042Z,16.03
2019-04-30T21:19:47.419Z,18.17
2019-04-30T21:22:16.779Z,21.53
2019-04-30T21:24:46.149Z,17.87
2019-04-30T21:27:16.217Z,17.07
2019-04-30T21:29:45.584Z,17.87
2019-04-30T21:32:16.587Z,17.43
2019-04-30T21:34:53.832Z,15.17
2019-04-30T21:37:23.171Z,18.47
2019-04-30T21:39:52.531Z,17.57
2019-04-30T21:42:22.893Z,16.00
2019-04-30T21:44:52.247Z,18.23
2019-04-30T21:47:21.622Z,19.30
2019-04-30T21:49:51.047Z,19.20
2019-04-30T21:52:20.418Z,20.40
2019-04-30T21:54:49.793Z,16.67
2019-04-30T21:57:19.205Z,15.27
2019-04-30T21:59:48.781Z,15.70
2019-04-30T22:02:18.107Z,16.80
2019-04-30T22:04:48.263Z,18.77
2019-04-30T22:07:19.503Z,17.92
2019-04-30T22:09:48.896Z,16.53
2019-04-30T22:12:19.157Z,19.50
2019-04-30T22:14:48.535Z,17.67
2019-04-30T22:17:19.372Z,17.50
2019-04-30T22:19:51.616Z,20.33
2019-04-30T22:22:20.401Z,17.17
2019-04-30T22:24:49.839Z,19.87
2019-04-30T22:27:19.265Z,20.10
2019-04-30T22:29:48.633Z,18.67
2019-04-30T22:32:18.098Z,18.03
2019-04-30T22:34:47.880Z,18.77
2019-04-30T22:37:17.270Z,13.90
2019-04-30T22:39:59.379Z,22.70
2019-04-30T22:42:35.146Z,17.93
2019-04-30T22:45:09.029Z,14.23
2019-04-30T22:47:38.491Z,21.07
2019-04-30T22:50:09.063Z,17.30
2019-04-30T22:52:38.442Z,19.10
2019-04-30T22:55:08.691Z,18.10
2019-04-30T22:57:38.056Z,23.90
2019-04-30T23:00:12.934Z,19.07
2019-04-30T23:02:58.831Z,16.83
2019-04-30T23:05:28.248Z,17.73
2019-04-30T23:07:57.619Z,17.83
2019-04-30T23:10:26.973Z,25.83
2019-04-30T23:12:56.459Z,21.13
2019-04-30T23:15:25.967Z,17.23
2019-04-30T23:17:55.338Z,22.23
2019-04-30T23:20:25.561Z,16.77
2019-04-30T23:22:54.935Z,16.13
2019-04-30T23:25:24.311Z,17.27
2019-04-30T23:27:53.704Z,20.07
2019-04-30T23:30:23.144Z,17.77
2019-04-30T23:32:52.514Z,16.23
2019-04-30T23:35:21.941Z,17.00
2019-04-30T23:37:52.147Z,16.50
2019-04-30T23:40:31.435Z,20.10
2019-04-30T23:43:00.866Z,19.07
2019-04-30T23:45:30.248Z,21.37
2019-04-30T23:47:59.642Z,18.50
2019-04-30T23:50:29.024Z,19.60
2019-04-30T23:52:58.384Z,21.57
2019-04-30T23:55:27.765Z,26.50
2019-04-30T23:57:57.143Z,18.70
